sensor_id;sensor_type;location;lat;lon;timestamp;P1;durP1;ratioP1;P2;durP2;ratioP2
22851;SDS011;11592;45.460;9.240;2023-06-10T00:00:44;7.50;;;4.93;;
22851;SDS011;11592;45.460;9.240;2023-06-10T00:03:11;10.32;;;4.28;;
22851;SDS011;11592;45.460;9.240;2023-06-10T00:05:38;8.55;;;4.18;;
22851;SDS011;11592;45.460;9.240;2023-06-10T00:08:05;6.25;;;3.85;;
22851;SDS011;11592;45.460;9.240;2023-06-10T00:10:37;7.13;;;3.92;;
22851;SDS011;11592;45.460;9.240;2023-06-10T00:13:05;6.53;;;3.50;;
22851;SDS011;11592;45.460;9.240;2023-06-10T00:15:34;9.48;;;3.95;;
22851;SDS011;11592;45.460;9.240;2023-06-10T00:18:02;6.38;;;3.75;;
22851;SDS011;11592;45.460;9.240;2023-06-10T00:20:30;7.97;;;3.63;;
22851;SDS011;11592;45.460;9.240;2023-06-10T00:22:58;6.28;;;3.30;;
22851;SDS011;11592;45.460;9.240;2023-06-10T00:25:25;6.80;;;3.90;;
22851;SDS011;11592;45.460;9.240;2023-06-10T00:27:52;8.27;;;4.13;;
22851;SDS011;11592;45.460;9.240;2023-06-10T00:30:19;7.47;;;4.07;;
22851;SDS011;11592;45.460;9.240;2023-06-10T00:32:46;7.97;;;4.03;;
22851;SDS011;11592;45.460;9.240;2023-06-10T00:35:13;9.05;;;3.80;;
22851;SDS011;11592;45.460;9.240;2023-06-10T00:37:40;13.77;;;3.65;;
22851;SDS011;11592;45.460;9.240;2023-06-10T00:40:07;6.88;;;3.42;;
22851;SDS011;11592;45.460;9.240;2023-06-10T00:42:37;5.78;;;3.10;;
22851;SDS011;11592;45.460;9.240;2023-06-10T00:45:04;11.80;;;3.70;;
22851;SDS011;11592;45.460;9.240;2023-06-10T00:47:33;5.82;;;3.40;;
22851;SDS011;11592;45.460;9.240;2023-06-10T00:50:01;6.90;;;3.20;;
22851;SDS011;11592;45.460;9.240;2023-06-10T00:52:29;7.55;;;3.80;;
22851;SDS011;11592;45.460;9.240;2023-06-10T00:54:56;4.13;;;3.08;;
22851;SDS011;11592;45.460;9.240;2023-06-10T00:57:25;6.18;;;3.17;;
22851;SDS011;11592;45.460;9.240;2023-06-10T00:59:52;5.20;;;2.97;;
22851;SDS011;11592;45.460;9.240;2023-06-10T01:02:20;5.88;;;3.35;;
22851;SDS011;11592;45.460;9.240;2023-06-10T01:04:47;4.72;;;3.42;;
22851;SDS011;11592;45.460;9.240;2023-06-10T01:09:54;7.05;;;3.45;;
22851;SDS011;11592;45.460;9.240;2023-06-10T01:15:16;7.47;;;3.92;;
22851;SDS011;11592;45.460;9.240;2023-06-10T01:17:56;10.55;;;3.83;;
22851;SDS011;11592;45.460;9.240;2023-06-10T01:20:28;8.13;;;3.22;;
22851;SDS011;11592;45.460;9.240;2023-06-10T01:22:58;5.72;;;3.53;;
22851;SDS011;11592;45.460;9.240;2023-06-10T01:25:26;10.02;;;3.97;;
22851;SDS011;11592;45.460;9.240;2023-06-10T01:33:29;7.68;;;3.92;;
22851;SDS011;11592;45.460;9.240;2023-06-10T01:35:59;10.10;;;4.07;;
22851;SDS011;11592;45.460;9.240;2023-06-10T01:38:30;6.25;;;4.13;;
22851;SDS011;11592;45.460;9.240;2023-06-10T01:41:02;8.18;;;4.97;;
22851;SDS011;11592;45.460;9.240;2023-06-10T01:43:32;11.73;;;4.45;;
22851;SDS011;11592;45.460;9.240;2023-06-10T01:45:59;8.18;;;4.18;;
22851;SDS011;11592;45.460;9.240;2023-06-10T01:48:26;9.98;;;5.30;;
22851;SDS011;11592;45.460;9.240;2023-06-10T01:50:53;11.60;;;4.00;;
22851;SDS011;11592;45.460;9.240;2023-06-10T01:53:22;9.05;;;4.20;;
22851;SDS011;11592;45.460;9.240;2023-06-10T01:55:49;9.63;;;3.72;;
22851;SDS011;11592;45.460;9.240;2023-06-10T01:58:16;13.75;;;3.92;;
22851;SDS011;11592;45.460;9.240;2023-06-10T02:00:43;8.40;;;4.32;;
22851;SDS011;11592;45.460;9.240;2023-06-10T02:03:09;8.25;;;4.15;;
22851;SDS011;11592;45.460;9.240;2023-06-10T02:05:37;7.90;;;4.30;;
22851;SDS011;11592;45.460;9.240;2023-06-10T02:08:04;6.28;;;3.78;;
22851;SDS011;11592;45.460;9.240;2023-06-10T02:10:31;8.90;;;4.10;;
22851;SDS011;11592;45.460;9.240;2023-06-10T02:12:58;7.28;;;3.50;;
22851;SDS011;11592;45.460;9.240;2023-06-10T02:15:25;7.15;;;3.90;;
22851;SDS011;11592;45.460;9.240;2023-06-10T02:17:52;9.10;;;4.20;;
22851;SDS011;11592;45.460;9.240;2023-06-10T02:20:19;10.07;;;3.67;;
22851;SDS011;11592;45.460;9.240;2023-06-10T02:22:46;9.77;;;4.90;;
22851;SDS011;11592;45.460;9.240;2023-06-10T02:25:12;9.32;;;3.97;;
22851;SDS011;11592;45.460;9.240;2023-06-10T02:27:39;12.73;;;4.03;;
22851;SDS011;11592;45.460;9.240;2023-06-10T02:30:06;6.15;;;3.53;;
22851;SDS011;11592;45.460;9.240;2023-06-10T02:32:36;8.30;;;3.55;;
22851;SDS011;11592;45.460;9.240;2023-06-10T02:35:03;6.53;;;3.63;;
22851;SDS011;11592;45.460;9.240;2023-06-10T02:37:30;9.00;;;3.20;;
22851;SDS011;11592;45.460;9.240;2023-06-10T02:39:57;8.10;;;4.00;;
22851;SDS011;11592;45.460;9.240;2023-06-10T02:42:24;10.07;;;3.70;;
22851;SDS011;11592;45.460;9.240;2023-06-10T02:44:50;6.95;;;3.60;;
22851;SDS011;11592;45.460;9.240;2023-06-10T02:47:17;8.15;;;3.47;;
22851;SDS011;11592;45.460;9.240;2023-06-10T02:49:44;6.35;;;3.63;;
22851;SDS011;11592;45.460;9.240;2023-06-10T02:52:11;7.63;;;3.90;;
22851;SDS011;11592;45.460;9.240;2023-06-10T02:54:38;9.77;;;3.88;;
22851;SDS011;11592;45.460;9.240;2023-06-10T02:57:05;8.35;;;3.67;;
22851;SDS011;11592;45.460;9.240;2023-06-10T02:59:32;4.93;;;3.10;;
22851;SDS011;11592;45.460;9.240;2023-06-10T03:01:59;8.18;;;3.33;;
22851;SDS011;11592;45.460;9.240;2023-06-10T03:04:27;9.60;;;3.28;;
22851;SDS011;11592;45.460;9.240;2023-06-10T03:06:57;5.75;;;3.25;;
22851;SDS011;11592;45.460;9.240;2023-06-10T03:09:24;6.85;;;3.58;;
22851;SDS011;11592;45.460;9.240;2023-06-10T03:11:51;7.28;;;3.28;;
22851;SDS011;11592;45.460;9.240;2023-06-10T03:14:18;9.02;;;3.15;;
22851;SDS011;11592;45.460;9.240;2023-06-10T03:16:45;10.63;;;3.10;;
22851;SDS011;11592;45.460;9.240;2023-06-10T03:19:11;11.68;;;3.58;;
22851;SDS011;11592;45.460;9.240;2023-06-10T03:21:38;4.68;;;2.60;;
22851;SDS011;11592;45.460;9.240;2023-06-10T03:24:08;7.25;;;3.90;;
22851;SDS011;11592;45.460;9.240;2023-06-10T03:26:34;8.05;;;2.97;;
22851;SDS011;11592;45.460;9.240;2023-06-10T03:29:01;6.63;;;3.30;;
22851;SDS011;11592;45.460;9.240;2023-06-10T03:31:28;5.65;;;3.10;;
22851;SDS011;11592;45.460;9.240;2023-06-10T03:33:55;7.50;;;3.17;;
22851;SDS011;11592;45.460;9.240;2023-06-10T03:36:22;7.20;;;3.45;;
22851;SDS011;11592;45.460;9.240;2023-06-10T03:38:49;6.47;;;3.97;;
22851;SDS011;11592;45.460;9.240;2023-06-10T03:41:18;9.35;;;4.20;;
22851;SDS011;11592;45.460;9.240;2023-06-10T03:43:44;6.32;;;3.10;;
22851;SDS011;11592;45.460;9.240;2023-06-10T03:46:12;11.30;;;3.65;;
22851;SDS011;11592;45.460;9.240;2023-06-10T03:48:38;8.75;;;3.35;;
22851;SDS011;11592;45.460;9.240;2023-06-10T03:51:05;4.88;;;3.20;;
22851;SDS011;11592;45.460;9.240;2023-06-10T03:53:32;9.15;;;3.75;;
22851;SDS011;11592;45.460;9.240;2023-06-10T03:55:59;7.45;;;4.07;;
22851;SDS011;11592;45.460;9.240;2023-06-10T03:58:26;5.10;;;3.20;;
22851;SDS011;11592;45.460;9.240;2023-06-10T04:00:53;5.22;;;3.10;;
22851;SDS011;11592;45.460;9.240;2023-06-10T04:03:19;6.97;;;3.70;;
22851;SDS011;11592;45.460;9.240;2023-06-10T04:05:47;7.15;;;3.50;;
22851;SDS011;11592;45.460;9.240;2023-06-10T04:08:14;6.63;;;3.55;;
22851;SDS011;11592;45.460;9.240;2023-06-10T04:10:41;6.43;;;3.22;;
22851;SDS011;11592;45.460;9.240;2023-06-10T04:13:08;4.88;;;3.10;;
22851;SDS011;11592;45.460;9.240;2023-06-10T04:15:35;10.52;;;3.13;;
22851;SDS011;11592;45.460;9.240;2023-06-10T04:18:02;6.70;;;3.10;;
22851;SDS011;11592;45.460;9.240;2023-06-10T04:20:29;6.80;;;3.50;;
22851;SDS011;11592;45.460;9.240;2023-06-10T04:22:56;7.03;;;3.60;;
22851;SDS011;11592;45.460;9.240;2023-06-10T04:25:23;7.05;;;3.45;;
22851;SDS011;11592;45.460;9.240;2023-06-10T04:27:50;7.32;;;3.28;;
22851;SDS011;11592;45.460;9.240;2023-06-10T04:30:17;9.02;;;3.45;;
22851;SDS011;11592;45.460;9.240;2023-06-10T04:32:44;7.18;;;3.30;;
22851;SDS011;11592;45.460;9.240;2023-06-10T04:35:11;5.35;;;2.83;;
22851;SDS011;11592;45.460;9.240;2023-06-10T04:37:40;9.55;;;3.63;;
22851;SDS011;11592;45.460;9.240;2023-06-10T04:40:07;6.40;;;3.40;;
22851;SDS011;11592;45.460;9.240;2023-06-10T04:42:35;6.75;;;2.85;;
22851;SDS011;11592;45.460;9.240;2023-06-10T04:45:02;5.55;;;2.75;;
22851;SDS011;11592;45.460;9.240;2023-06-10T04:47:33;9.25;;;3.45;;
22851;SDS011;11592;45.460;9.240;2023-06-10T04:50:00;6.20;;;3.22;;
22851;SDS011;11592;45.460;9.240;2023-06-10T04:52:28;7.55;;;3.10;;
22851;SDS011;11592;45.460;9.240;2023-06-10T04:54:54;6.15;;;3.17;;
22851;SDS011;11592;45.460;9.240;2023-06-10T04:57:22;4.28;;;2.90;;
22851;SDS011;11592;45.460;9.240;2023-06-10T04:59:49;8.82;;;3.50;;
22851;SDS011;11592;45.460;9.240;2023-06-10T05:02:16;6.13;;;3.47;;
22851;SDS011;11592;45.460;9.240;2023-06-10T05:04:43;6.28;;;3.38;;
22851;SDS011;11592;45.460;9.240;2023-06-10T05:07:09;7.45;;;3.20;;
22851;SDS011;11592;45.460;9.240;2023-06-10T05:09:36;9.65;;;3.97;;
22851;SDS011;11592;45.460;9.240;2023-06-10T05:12:03;6.60;;;3.50;;
22851;SDS011;11592;45.460;9.240;2023-06-10T05:14:31;9.90;;;4.43;;
22851;SDS011;11592;45.460;9.240;2023-06-10T05:16:58;7.63;;;4.00;;
22851;SDS011;11592;45.460;9.240;2023-06-10T05:19:24;7.88;;;3.75;;
22851;SDS011;11592;45.460;9.240;2023-06-10T05:21:51;10.13;;;3.78;;
22851;SDS011;11592;45.460;9.240;2023-06-10T05:24:18;5.55;;;3.60;;
22851;SDS011;11592;45.460;9.240;2023-06-10T05:26:45;8.43;;;3.50;;
22851;SDS011;11592;45.460;9.240;2023-06-10T05:29:13;10.75;;;4.32;;
22851;SDS011;11592;45.460;9.240;2023-06-10T05:31:41;12.98;;;4.47;;
22851;SDS011;11592;45.460;9.240;2023-06-10T05:34:08;7.25;;;4.22;;
22851;SDS011;11592;45.460;9.240;2023-06-10T05:36:35;11.70;;;4.10;;
22851;SDS011;11592;45.460;9.240;2023-06-10T05:39:02;8.77;;;4.35;;
22851;SDS011;11592;45.460;9.240;2023-06-10T05:41:29;14.50;;;4.65;;
22851;SDS011;11592;45.460;9.240;2023-06-10T05:43:57;7.47;;;3.80;;
22851;SDS011;11592;45.460;9.240;2023-06-10T05:46:23;7.20;;;3.70;;
22851;SDS011;11592;45.460;9.240;2023-06-10T05:48:50;7.10;;;3.63;;
22851;SDS011;11592;45.460;9.240;2023-06-10T05:51:17;8.30;;;4.20;;
22851;SDS011;11592;45.460;9.240;2023-06-10T05:53:44;12.75;;;4.07;;
22851;SDS011;11592;45.460;9.240;2023-06-10T05:56:13;7.80;;;3.75;;
22851;SDS011;11592;45.460;9.240;2023-06-10T05:58:40;7.85;;;3.83;;
22851;SDS011;11592;45.460;9.240;2023-06-10T06:01:07;9.45;;;4.00;;
22851;SDS011;11592;45.460;9.240;2023-06-10T06:03:34;9.40;;;3.80;;
22851;SDS011;11592;45.460;9.240;2023-06-10T06:06:02;6.20;;;3.28;;
22851;SDS011;11592;45.460;9.240;2023-06-10T06:08:29;7.32;;;3.53;;
22851;SDS011;11592;45.460;9.240;2023-06-10T06:10:56;7.40;;;3.33;;
22851;SDS011;11592;45.460;9.240;2023-06-10T06:13:24;6.00;;;3.42;;
22851;SDS011;11592;45.460;9.240;2023-06-10T06:15:51;7.07;;;3.30;;
22851;SDS011;11592;45.460;9.240;2023-06-10T06:18:17;9.32;;;4.18;;
22851;SDS011;11592;45.460;9.240;2023-06-10T06:20:45;8.18;;;3.33;;
22851;SDS011;11592;45.460;9.240;2023-06-10T06:23:11;5.75;;;3.10;;
22851;SDS011;11592;45.460;9.240;2023-06-10T06:25:38;14.65;;;4.20;;
22851;SDS011;11592;45.460;9.240;2023-06-10T06:28:06;10.27;;;3.65;;
22851;SDS011;11592;45.460;9.240;2023-06-10T06:30:33;8.30;;;3.58;;
22851;SDS011;11592;45.460;9.240;2023-06-10T06:33:00;8.50;;;3.90;;
22851;SDS011;11592;45.460;9.240;2023-06-10T06:35:30;11.32;;;3.70;;
22851;SDS011;11592;45.460;9.240;2023-06-10T06:37:57;12.93;;;3.90;;
22851;SDS011;11592;45.460;9.240;2023-06-10T06:40:25;8.43;;;3.20;;
22851;SDS011;11592;45.460;9.240;2023-06-10T06:42:52;7.53;;;3.50;;
22851;SDS011;11592;45.460;9.240;2023-06-10T06:45:18;8.45;;;3.50;;
22851;SDS011;11592;45.460;9.240;2023-06-10T06:47:45;6.32;;;3.20;;
22851;SDS011;11592;45.460;9.240;2023-06-10T06:50:12;7.80;;;3.42;;
22851;SDS011;11592;45.460;9.240;2023-06-10T06:52:39;9.05;;;3.75;;
22851;SDS011;11592;45.460;9.240;2023-06-10T06:55:06;6.78;;;3.67;;
22851;SDS011;11592;45.460;9.240;2023-06-10T06:57:34;5.15;;;3.03;;
22851;SDS011;11592;45.460;9.240;2023-06-10T07:00:01;7.78;;;3.25;;
22851;SDS011;11592;45.460;9.240;2023-06-10T07:02:27;6.50;;;3.20;;
22851;SDS011;11592;45.460;9.240;2023-06-10T07:04:54;5.93;;;2.90;;
22851;SDS011;11592;45.460;9.240;2023-06-10T07:07:22;5.43;;;3.58;;
22851;SDS011;11592;45.460;9.240;2023-06-10T07:09:49;8.88;;;3.58;;
22851;SDS011;11592;45.460;9.240;2023-06-10T07:12:16;7.13;;;3.13;;
22851;SDS011;11592;45.460;9.240;2023-06-10T07:14:44;5.55;;;3.05;;
22851;SDS011;11592;45.460;9.240;2023-06-10T07:17:11;6.32;;;3.20;;
22851;SDS011;11592;45.460;9.240;2023-06-10T07:19:38;7.35;;;3.60;;
22851;SDS011;11592;45.460;9.240;2023-06-10T07:22:04;9.63;;;3.60;;
22851;SDS011;11592;45.460;9.240;2023-06-10T07:24:31;8.15;;;3.40;;
22851;SDS011;11592;45.460;9.240;2023-06-10T07:26:58;8.45;;;4.25;;
22851;SDS011;11592;45.460;9.240;2023-06-10T07:29:25;6.95;;;3.63;;
22851;SDS011;11592;45.460;9.240;2023-06-10T07:31:51;10.55;;;3.53;;
22851;SDS011;11592;45.460;9.240;2023-06-10T07:34:19;8.55;;;3.72;;
22851;SDS011;11592;45.460;9.240;2023-06-10T07:36:46;10.13;;;3.65;;
22851;SDS011;11592;45.460;9.240;2023-06-10T07:39:13;7.15;;;3.90;;
22851;SDS011;11592;45.460;9.240;2023-06-10T07:41:40;6.68;;;3.72;;
22851;SDS011;11592;45.460;9.240;2023-06-10T07:44:06;7.65;;;3.42;;
22851;SDS011;11592;45.460;9.240;2023-06-10T07:46:33;12.82;;;4.50;;
22851;SDS011;11592;45.460;9.240;2023-06-10T07:49:00;13.32;;;3.95;;
22851;SDS011;11592;45.460;9.240;2023-06-10T07:51:28;12.00;;;4.15;;
22851;SDS011;11592;45.460;9.240;2023-06-10T07:53:55;7.97;;;3.65;;
22851;SDS011;11592;45.460;9.240;2023-06-10T07:56:21;10.63;;;4.10;;
22851;SDS011;11592;45.460;9.240;2023-06-10T07:58:48;8.35;;;4.57;;
22851;SDS011;11592;45.460;9.240;2023-06-10T08:01:15;12.18;;;4.05;;
22851;SDS011;11592;45.460;9.240;2023-06-10T08:03:42;9.38;;;4.80;;
22851;SDS011;11592;45.460;9.240;2023-06-10T08:06:10;11.10;;;4.55;;
22851;SDS011;11592;45.460;9.240;2023-06-10T08:08:37;9.40;;;4.03;;
22851;SDS011;11592;45.460;9.240;2023-06-10T08:11:12;9.85;;;4.00;;
22851;SDS011;11592;45.460;9.240;2023-06-10T08:13:40;8.48;;;4.28;;
22851;SDS011;11592;45.460;9.240;2023-06-10T08:16:06;12.80;;;5.03;;
22851;SDS011;11592;45.460;9.240;2023-06-10T08:18:34;11.00;;;4.80;;
22851;SDS011;11592;45.460;9.240;2023-06-10T08:21:00;10.10;;;4.78;;
22851;SDS011;11592;45.460;9.240;2023-06-10T08:23:27;11.55;;;5.97;;
22851;SDS011;11592;45.460;9.240;2023-06-10T08:25:54;11.27;;;5.60;;
22851;SDS011;11592;45.460;9.240;2023-06-10T08:28:21;11.55;;;6.10;;
22851;SDS011;11592;45.460;9.240;2023-06-10T08:30:47;14.07;;;5.45;;
22851;SDS011;11592;45.460;9.240;2023-06-10T08:33:14;13.98;;;6.05;;
22851;SDS011;11592;45.460;9.240;2023-06-10T08:35:41;9.48;;;5.20;;
22851;SDS011;11592;45.460;9.240;2023-06-10T08:38:08;8.57;;;5.32;;
22851;SDS011;11592;45.460;9.240;2023-06-10T08:40:35;12.95;;;5.30;;
22851;SDS011;11592;45.460;9.240;2023-06-10T08:43:06;13.55;;;6.60;;
22851;SDS011;11592;45.460;9.240;2023-06-10T08:45:35;14.80;;;5.82;;
22851;SDS011;11592;45.460;9.240;2023-06-10T08:48:03;12.80;;;6.05;;
22851;SDS011;11592;45.460;9.240;2023-06-10T08:50:35;9.70;;;6.25;;
22851;SDS011;11592;45.460;9.240;2023-06-10T08:53:06;9.85;;;5.43;;
22851;SDS011;11592;45.460;9.240;2023-06-10T08:55:43;12.50;;;6.15;;
22851;SDS011;11592;45.460;9.240;2023-06-10T08:58:14;12.20;;;6.40;;
22851;SDS011;11592;45.460;9.240;2023-06-10T09:00:41;14.82;;;6.18;;
22851;SDS011;11592;45.460;9.240;2023-06-10T09:03:08;12.02;;;6.15;;
22851;SDS011;11592;45.460;9.240;2023-06-10T09:05:36;9.55;;;5.57;;
22851;SDS011;11592;45.460;9.240;2023-06-10T09:08:05;10.75;;;5.82;;
22851;SDS011;11592;45.460;9.240;2023-06-10T09:10:33;11.65;;;5.85;;
22851;SDS011;11592;45.460;9.240;2023-06-10T09:13:00;12.88;;;6.70;;
22851;SDS011;11592;45.460;9.240;2023-06-10T09:15:27;14.75;;;6.72;;
22851;SDS011;11592;45.460;9.240;2023-06-10T09:17:54;13.82;;;6.88;;
22851;SDS011;11592;45.460;9.240;2023-06-10T09:20:21;10.23;;;5.72;;
22851;SDS011;11592;45.460;9.240;2023-06-10T09:22:49;11.50;;;5.75;;
22851;SDS011;11592;45.460;9.240;2023-06-10T09:25:15;13.25;;;6.40;;
22851;SDS011;11592;45.460;9.240;2023-06-10T09:27:51;9.90;;;5.50;;
22851;SDS011;11592;45.460;9.240;2023-06-10T09:30:25;13.43;;;5.90;;
22851;SDS011;11592;45.460;9.240;2023-06-10T09:32:55;11.95;;;6.50;;
22851;SDS011;11592;45.460;9.240;2023-06-10T09:35:23;13.98;;;5.72;;
22851;SDS011;11592;45.460;9.240;2023-06-10T09:37:51;9.35;;;5.10;;
22851;SDS011;11592;45.460;9.240;2023-06-10T09:40:19;9.90;;;4.75;;
22851;SDS011;11592;45.460;9.240;2023-06-10T09:42:46;11.68;;;4.63;;
22851;SDS011;11592;45.460;9.240;2023-06-10T09:45:21;9.60;;;5.13;;
22851;SDS011;11592;45.460;9.240;2023-06-10T09:47:52;7.07;;;4.25;;
22851;SDS011;11592;45.460;9.240;2023-06-10T09:50:19;10.68;;;3.88;;
22851;SDS011;11592;45.460;9.240;2023-06-10T09:52:47;11.57;;;4.55;;
22851;SDS011;11592;45.460;9.240;2023-06-10T09:55:14;9.52;;;4.47;;
22851;SDS011;11592;45.460;9.240;2023-06-10T09:57:41;8.85;;;4.13;;
22851;SDS011;11592;45.460;9.240;2023-06-10T10:00:11;8.60;;;3.90;;
22851;SDS011;11592;45.460;9.240;2023-06-10T10:02:48;7.80;;;3.88;;
22851;SDS011;11592;45.460;9.240;2023-06-10T10:05:21;8.93;;;3.72;;
22851;SDS011;11592;45.460;9.240;2023-06-10T10:07:49;9.48;;;3.78;;
22851;SDS011;11592;45.460;9.240;2023-06-10T10:10:17;8.57;;;4.10;;
22851;SDS011;11592;45.460;9.240;2023-06-10T10:12:46;9.05;;;3.97;;
22851;SDS011;11592;45.460;9.240;2023-06-10T10:15:13;9.75;;;4.47;;
22851;SDS011;11592;45.460;9.240;2023-06-10T10:17:49;9.23;;;3.63;;
22851;SDS011;11592;45.460;9.240;2023-06-10T10:20:17;9.40;;;3.30;;
22851;SDS011;11592;45.460;9.240;2023-06-10T10:22:48;11.52;;;3.92;;
22851;SDS011;11592;45.460;9.240;2023-06-10T10:25:17;7.97;;;3.47;;
22851;SDS011;11592;45.460;9.240;2023-06-10T10:30:23;8.90;;;3.80;;
22851;SDS011;11592;45.460;9.240;2023-06-10T10:32:54;9.00;;;3.75;;
22851;SDS011;11592;45.460;9.240;2023-06-10T10:35:45;8.77;;;3.63;;
22851;SDS011;11592;45.460;9.240;2023-06-10T10:38:12;7.63;;;3.25;;
22851;SDS011;11592;45.460;9.240;2023-06-10T10:40:39;7.45;;;3.63;;
22851;SDS011;11592;45.460;9.240;2023-06-10T10:43:07;9.70;;;3.30;;
22851;SDS011;11592;45.460;9.240;2023-06-10T10:45:35;6.40;;;3.22;;
22851;SDS011;11592;45.460;9.240;2023-06-10T10:48:06;8.82;;;3.78;;
22851;SDS011;11592;45.460;9.240;2023-06-10T10:50:38;9.70;;;3.28;;
22851;SDS011;11592;45.460;9.240;2023-06-10T10:53:08;7.70;;;3.33;;
22851;SDS011;11592;45.460;9.240;2023-06-10T10:55:35;8.57;;;3.95;;
22851;SDS011;11592;45.460;9.240;2023-06-10T10:58:05;7.05;;;3.53;;
22851;SDS011;11592;45.460;9.240;2023-06-10T11:00:34;7.93;;;3.53;;
22851;SDS011;11592;45.460;9.240;2023-06-10T11:05:43;14.82;;;4.70;;
22851;SDS011;11592;45.460;9.240;2023-06-10T11:08:15;12.80;;;5.85;;
22851;SDS011;11592;45.460;9.240;2023-06-10T11:14:04;9.88;;;6.05;;
22851;SDS011;11592;45.460;9.240;2023-06-10T11:16:38;16.40;;;6.32;;
22851;SDS011;11592;45.460;9.240;2023-06-10T11:19:06;10.30;;;4.40;;
22851;SDS011;11592;45.460;9.240;2023-06-10T11:24:29;6.20;;;3.13;;
22851;SDS011;11592;45.460;9.240;2023-06-10T11:32:30;4.75;;;2.80;;
22851;SDS011;11592;45.460;9.240;2023-06-10T11:34:58;4.93;;;2.72;;
22851;SDS011;11592;45.460;9.240;2023-06-10T11:37:28;6.07;;;2.75;;
22851;SDS011;11592;45.460;9.240;2023-06-10T11:39:55;3.95;;;2.28;;
22851;SDS011;11592;45.460;9.240;2023-06-10T11:42:22;5.85;;;2.50;;
22851;SDS011;11592;45.460;9.240;2023-06-10T11:44:50;8.55;;;3.13;;
22851;SDS011;11592;45.460;9.240;2023-06-10T11:47:18;8.32;;;2.88;;
22851;SDS011;11592;45.460;9.240;2023-06-10T11:49:46;6.88;;;2.60;;
22851;SDS011;11592;45.460;9.240;2023-06-10T11:52:29;4.93;;;2.30;;
22851;SDS011;11592;45.460;9.240;2023-06-10T11:54:58;6.05;;;2.70;;
22851;SDS011;11592;45.460;9.240;2023-06-10T11:57:25;3.85;;;2.50;;
22851;SDS011;11592;45.460;9.240;2023-06-10T11:59:51;8.15;;;3.45;;
22851;SDS011;11592;45.460;9.240;2023-06-10T12:02:18;4.75;;;2.85;;
22851;SDS011;11592;45.460;9.240;2023-06-10T12:04:45;6.63;;;3.00;;
22851;SDS011;11592;45.460;9.240;2023-06-10T12:07:18;7.07;;;3.13;;
22851;SDS011;11592;45.460;9.240;2023-06-10T12:09:46;6.03;;;2.40;;
22851;SDS011;11592;45.460;9.240;2023-06-10T12:12:13;3.53;;;2.30;;
22851;SDS011;11592;45.460;9.240;2023-06-10T12:17:37;8.27;;;3.50;;
22851;SDS011;11592;45.460;9.240;2023-06-10T12:20:06;5.45;;;2.80;;
22851;SDS011;11592;45.460;9.240;2023-06-10T12:22:38;5.28;;;2.72;;
22851;SDS011;11592;45.460;9.240;2023-06-10T12:25:09;5.45;;;3.00;;
22851;SDS011;11592;45.460;9.240;2023-06-10T12:27:38;5.05;;;2.50;;
22851;SDS011;11592;45.460;9.240;2023-06-10T12:30:07;7.20;;;3.00;;
22851;SDS011;11592;45.460;9.240;2023-06-10T12:32:38;6.53;;;2.50;;
22851;SDS011;11592;45.460;9.240;2023-06-10T12:35:07;5.78;;;2.38;;
22851;SDS011;11592;45.460;9.240;2023-06-10T12:37:36;10.43;;;2.90;;
22851;SDS011;11592;45.460;9.240;2023-06-10T12:40:07;3.63;;;2.58;;
22851;SDS011;11592;45.460;9.240;2023-06-10T12:42:35;8.05;;;2.75;;
22851;SDS011;11592;45.460;9.240;2023-06-10T12:45:04;6.72;;;2.90;;
22851;SDS011;11592;45.460;9.240;2023-06-10T12:47:34;5.30;;;2.90;;
22851;SDS011;11592;45.460;9.240;2023-06-10T12:50:06;5.85;;;2.60;;
22851;SDS011;11592;45.460;9.240;2023-06-10T12:52:33;5.97;;;2.53;;
22851;SDS011;11592;45.460;9.240;2023-06-10T12:55:00;6.10;;;2.13;;
22851;SDS011;11592;45.460;9.240;2023-06-10T12:57:27;5.25;;;2.33;;
22851;SDS011;11592;45.460;9.240;2023-06-10T12:59:55;4.45;;;2.58;;
22851;SDS011;11592;45.460;9.240;2023-06-10T13:04:57;5.53;;;2.80;;
22851;SDS011;11592;45.460;9.240;2023-06-10T13:07:25;4.60;;;2.38;;
22851;SDS011;11592;45.460;9.240;2023-06-10T13:09:52;4.60;;;2.58;;
22851;SDS011;11592;45.460;9.240;2023-06-10T13:12:19;6.30;;;2.97;;
22851;SDS011;11592;45.460;9.240;2023-06-10T13:15:03;6.50;;;2.60;;
22851;SDS011;11592;45.460;9.240;2023-06-10T13:17:31;7.38;;;2.40;;
22851;SDS011;11592;45.460;9.240;2023-06-10T13:20:00;8.02;;;3.28;;
22851;SDS011;11592;45.460;9.240;2023-06-10T13:22:29;6.70;;;3.20;;
22851;SDS011;11592;45.460;9.240;2023-06-10T13:24:57;7.57;;;2.80;;
22851;SDS011;11592;45.460;9.240;2023-06-10T13:27:23;9.18;;;3.15;;
22851;SDS011;11592;45.460;9.240;2023-06-10T13:29:50;4.35;;;2.45;;
22851;SDS011;11592;45.460;9.240;2023-06-10T13:32:17;8.32;;;2.50;;
22851;SDS011;11592;45.460;9.240;2023-06-10T13:34:44;7.13;;;2.72;;
22851;SDS011;11592;45.460;9.240;2023-06-10T13:37:11;8.50;;;2.95;;
22851;SDS011;11592;45.460;9.240;2023-06-10T13:39:38;5.68;;;2.78;;
22851;SDS011;11592;45.460;9.240;2023-06-10T13:42:05;9.35;;;2.95;;
22851;SDS011;11592;45.460;9.240;2023-06-10T13:44:34;4.45;;;3.10;;
22851;SDS011;11592;45.460;9.240;2023-06-10T13:47:02;4.90;;;3.00;;
22851;SDS011;11592;45.460;9.240;2023-06-10T13:49:30;8.20;;;3.72;;
22851;SDS011;11592;45.460;9.240;2023-06-10T13:51:57;8.68;;;3.75;;
22851;SDS011;11592;45.460;9.240;2023-06-10T13:54:24;7.70;;;4.32;;
22851;SDS011;11592;45.460;9.240;2023-06-10T13:56:51;10.48;;;4.38;;
22851;SDS011;11592;45.460;9.240;2023-06-10T13:59:18;8.45;;;3.92;;
22851;SDS011;11592;45.460;9.240;2023-06-10T14:01:45;11.02;;;4.50;;
22851;SDS011;11592;45.460;9.240;2023-06-10T14:04:12;6.53;;;4.30;;
22851;SDS011;11592;45.460;9.240;2023-06-10T14:06:40;8.98;;;4.32;;
22851;SDS011;11592;45.460;9.240;2023-06-10T14:09:07;7.95;;;4.78;;
22851;SDS011;11592;45.460;9.240;2023-06-10T14:11:33;5.65;;;3.95;;
22851;SDS011;11592;45.460;9.240;2023-06-10T14:14:00;7.30;;;4.03;;
22851;SDS011;11592;45.460;9.240;2023-06-10T14:16:27;6.55;;;3.72;;
22851;SDS011;11592;45.460;9.240;2023-06-10T14:18:54;9.40;;;4.07;;
22851;SDS011;11592;45.460;9.240;2023-06-10T14:21:21;7.90;;;3.80;;
22851;SDS011;11592;45.460;9.240;2023-06-10T14:23:48;12.50;;;3.72;;
22851;SDS011;11592;45.460;9.240;2023-06-10T14:26:16;5.28;;;3.58;;
22851;SDS011;11592;45.460;9.240;2023-06-10T14:28:43;7.47;;;3.15;;
22851;SDS011;11592;45.460;9.240;2023-06-10T14:31:10;6.70;;;3.20;;
22851;SDS011;11592;45.460;9.240;2023-06-10T14:33:37;9.07;;;3.47;;
22851;SDS011;11592;45.460;9.240;2023-06-10T14:36:03;7.45;;;3.08;;
22851;SDS011;11592;45.460;9.240;2023-06-10T14:38:31;7.60;;;3.33;;
22851;SDS011;11592;45.460;9.240;2023-06-10T14:40:58;4.50;;;2.92;;
22851;SDS011;11592;45.460;9.240;2023-06-10T14:43:24;6.65;;;3.00;;
22851;SDS011;11592;45.460;9.240;2023-06-10T14:45:51;7.38;;;3.38;;
22851;SDS011;11592;45.460;9.240;2023-06-10T14:48:18;6.93;;;3.58;;
22851;SDS011;11592;45.460;9.240;2023-06-10T14:50:45;7.68;;;3.40;;
22851;SDS011;11592;45.460;9.240;2023-06-10T14:53:17;15.60;;;3.95;;
22851;SDS011;11592;45.460;9.240;2023-06-10T14:55:44;7.10;;;2.95;;
22851;SDS011;11592;45.460;9.240;2023-06-10T14:58:11;7.57;;;2.85;;
22851;SDS011;11592;45.460;9.240;2023-06-10T15:00:38;10.55;;;3.80;;
22851;SDS011;11592;45.460;9.240;2023-06-10T15:03:05;8.13;;;2.83;;
22851;SDS011;11592;45.460;9.240;2023-06-10T15:05:32;8.70;;;3.17;;
22851;SDS011;11592;45.460;9.240;2023-06-10T15:08:00;4.82;;;3.53;;
22851;SDS011;11592;45.460;9.240;2023-06-10T15:10:27;8.07;;;3.83;;
22851;SDS011;11592;45.460;9.240;2023-06-10T15:12:54;9.82;;;4.13;;
22851;SDS011;11592;45.460;9.240;2023-06-10T15:15:24;4.75;;;3.55;;
22851;SDS011;11592;45.460;9.240;2023-06-10T15:17:52;5.45;;;3.55;;
22851;SDS011;11592;45.460;9.240;2023-06-10T15:20:19;10.68;;;3.58;;
22851;SDS011;11592;45.460;9.240;2023-06-10T15:22:46;12.32;;;4.40;;